Time;durP1;ratioP1;P1;durP2;ratioP2;P2;SDS_P1;SDS_P2;PMS_P1;PMS_P2;Temp;Humidity;BMP_temperature;BMP_pressure;BME280_temperature;BME280_humidity;BME280_pressure;Samples;Min_cycle;Max_cycle;Signal;HPM_P1;HPM_P2
2022/11/22 00:00:19;;;;;;;14.67;8.43;;;3.80;86.90;;;;;;5016438;28;20212;-59
2022/11/22 00:02:46;;;;;;;9.30;7.77;;;3.80;86.90;;;;;;5016229;28;20192;-59
2022/11/22 00:05:12;;;;;;;11.73;7.17;;;3.80;86.90;;;;;;5032412;28;20436;-59
2022/11/22 00:07:38;;;;;;;10.00;7.27;;;3.80;86.90;;;;;;5017509;28;20419;-59
2022/11/22 00:10:05;;;;;;;11.10;8.27;;;3.80;86.80;;;;;;5015912;28;20572;-59
2022/11/22 00:12:31;;;;;;;10.80;7.80;;;3.80;86.80;;;;;;5019293;28;20487;-59
2022/11/22 00:14:57;;;;;;;8.73;6.57;;;3.80;86.80;;;;;;5000486;28;20825;-59
2022/11/22 00:17:23;;;;;;;13.23;8.03;;;3.90;86.80;;;;;;5002833;28;20194;-59
2022/11/22 00:19:48;;;;;;;10.03;7.67;;;3.80;86.60;;;;;;5015951;28;20330;-59
2022/11/22 00:22:14;;;;;;;12.07;8.20;;;3.90;86.50;;;;;;4999375;28;20184;-59
2022/11/22 00:24:40;;;;;;;10.73;8.30;;;3.90;86.50;;;;;;5029159;28;20192;-59
2022/11/22 00:27:05;;;;;;;15.93;7.60;;;3.90;86.30;;;;;;5048602;28;20191;-59
2022/11/22 00:29:31;;;;;;;10.20;6.97;;;3.80;86.20;;;;;;5028784;28;20202;-59
2022/11/22 00:31:56;;;;;;;10.70;7.00;;;3.80;86.30;;;;;;5000765;28;20195;-59
2022/11/22 00:34:22;;;;;;;10.43;7.33;;;3.90;86.30;;;;;;4997549;28;20561;-59
2022/11/22 00:36:48;;;;;;;12.30;7.30;;;3.90;86.30;;;;;;4999138;28;20555;-59
2022/11/22 00:39:13;;;;;;;11.27;7.47;;;3.90;86.30;;;;;;5018831;28;20191;-59
2022/11/22 00:41:39;;;;;;;11.77;8.37;;;3.90;86.30;;;;;;5026249;28;20650;-59
2022/11/22 00:44:04;;;;;;;8.80;6.87;;;4.00;86.30;;;;;;5007834;28;20215;-59
2022/11/22 00:46:33;;;;;;;10.73;7.10;;;4.00;86.30;;;;;;4999119;28;20183;-59
2022/11/22 00:48:59;;;;;;;10.53;6.73;;;4.00;86.30;;;;;;5001821;28;20219;-59
2022/11/22 00:51:24;;;;;;;9.30;7.20;;;4.00;85.70;;;;;;5015587;28;20423;-59
2022/11/22 00:53:50;;;;;;;8.23;6.53;;;4.00;85.70;;;;;;5014927;28;20206;-59
2022/11/22 00:56:16;;;;;;;9.63;6.63;;;4.00;85.70;;;;;;5001519;28;20273;-59
2022/11/22 00:58:41;;;;;;;10.50;7.27;;;4.00;85.80;;;;;;4997584;28;20639;-59
2022/11/22 01:01:07;;;;;;;11.20;6.87;;;4.00;85.80;;;;;;4998328;28;20188;-59
2022/11/22 01:03:32;;;;;;;13.63;7.43;;;3.90;85.30;;;;;;5015264;28;20188;-59
2022/11/22 01:05:58;;;;;;;9.67;7.60;;;4.00;85.40;;;;;;5015017;28;20237;-59
2022/11/22 01:08:24;;;;;;;12.47;8.03;;;4.00;85.50;;;;;;5006133;28;20196;-59
2022/11/22 01:10:55;;;;;;;13.73;8.50;;;4.00;85.40;;;;;;5006542;28;20220;-59
2022/11/22 01:13:20;;;;;;;22.37;12.43;;;4.00;85.40;;;;;;5034573;28;20198;-59
2022/11/22 01:15:46;;;;;;;18.67;12.27;;;4.00;85.70;;;;;;5015213;28;20488;-59
2022/11/22 01:18:12;;;;;;;20.50;10.87;;;4.00;86.00;;;;;;5017169;28;20202;-59
2022/11/22 01:20:39;;;;;;;18.40;11.60;;;4.00;86.00;;;;;;5011658;28;20323;-59
2022/11/22 01:23:05;;;;;;;20.37;11.23;;;4.00;86.10;;;;;;5014347;28;20187;-59
2022/11/22 01:25:30;;;;;;;21.43;12.00;;;4.00;86.10;;;;;;5014934;28;20435;-59
2022/11/22 01:27:56;;;;;;;21.13;12.83;;;4.10;86.20;;;;;;5000977;28;20258;-59
2022/11/22 01:30:22;;;;;;;17.80;11.43;;;4.00;86.30;;;;;;4998453;28;20216;-59
2022/11/22 01:32:47;;;;;;;24.37;11.20;;;4.10;86.40;;;;;;5014698;28;20195;-59
2022/11/22 01:35:13;;;;;;;19.27;11.53;;;4.10;86.40;;;;;;5020096;28;20195;-59
2022/11/22 01:37:39;;;;;;;22.43;12.03;;;4.10;86.40;;;;;;5014907;28;20195;-59
2022/11/22 01:40:05;;;;;;;23.37;12.20;;;4.10;86.50;;;;;;5002041;28;20189;-59
2022/11/22 01:42:45;;;;;;;22.13;13.13;;;4.10;86.50;;;;;;5031180;28;20191;-59
2022/11/22 01:45:29;;;;;;;22.00;12.37;;;4.20;86.50;;;;;;5013176;28;20544;-59
2022/11/22 01:48:23;;;;;;;18.60;10.47;;;4.20;86.50;;;;;;5026498;28;20453;-59
2022/11/22 01:50:54;;;;;;;20.70;11.57;;;4.20;86.50;;;;;;5019847;28;20510;-59
2022/11/22 01:53:28;;;;;;;23.80;12.43;;;4.20;86.50;;;;;;5003625;28;20459;-59
2022/11/22 01:55:59;;;;;;;19.50;11.13;;;4.20;86.50;;;;;;5014192;28;20421;-59
2022/11/22 01:58:28;;;;;;;24.07;10.60;;;4.20;86.50;;;;;;5014203;28;20988;-59
2022/11/22 02:00:55;;;;;;;16.73;9.47;;;4.20;86.40;;;;;;5014175;28;20919;-59
2022/11/22 02:03:22;;;;;;;13.80;8.27;;;4.20;86.30;;;;;;5030395;28;20458;-59
2022/11/22 02:05:48;;;;;;;15.23;9.40;;;4.30;86.40;;;;;;5008255;28;20518;-59
2022/11/22 02:08:45;;;;;;;16.30;9.83;;;4.20;86.40;;;;;;5013650;28;20450;-59
2022/11/22 02:11:12;;;;;;;12.67;8.33;;;4.30;86.30;;;;;;5029577;28;20537;-59
2022/11/22 02:13:42;;;;;;;15.80;10.07;;;4.20;86.30;;;;;;4998706;28;20925;-59
2022/11/22 02:16:09;;;;;;;12.90;8.30;;;4.30;86.30;;;;;;5028087;28;20431;-59
2022/11/22 02:18:37;;;;;;;13.93;8.77;;;4.30;86.20;;;;;;5012714;28;20423;-59
2022/11/22 02:21:10;;;;;;;13.30;8.67;;;4.30;86.20;;;;;;5013356;28;20435;-59
2022/11/22 02:24:21;;;;;;;16.03;8.07;;;4.30;86.10;;;;;;4997491;28;20423;-59
2022/11/22 02:27:05;;;;;;;12.17;7.90;;;4.20;85.90;;;;;;4989834;28;20430;-59
2022/11/22 02:29:31;;;;;;;11.20;8.10;;;4.30;85.90;;;;;;4963150;28;20478;-59
2022/11/22 02:31:57;;;;;;;13.83;9.03;;;4.30;85.80;;;;;;4999906;28;20429;-59
2022/11/22 02:34:23;;;;;;;12.37;8.23;;;4.30;85.80;;;;;;4994843;28;20517;-59
2022/11/22 02:36:51;;;;;;;15.00;8.50;;;4.30;85.80;;;;;;5013887;28;20279;-59
2022/11/22 02:39:21;;;;;;;12.67;7.37;;;4.30;85.80;;;;;;5030027;28;20195;-59
2022/11/22 02:41:48;;;;;;;15.30;9.63;;;4.30;85.80;;;;;;5030324;28;21099;-59
2022/11/22 02:44:14;;;;;;;20.67;9.73;;;4.30;85.70;;;;;;5030271;28;20522;-59
2022/11/22 02:46:51;;;;;;;15.07;8.60;;;4.30;85.80;;;;;;5004687;28;20456;-59
2022/11/22 02:49:20;;;;;;;16.33;9.10;;;4.30;85.90;;;;;;5028180;28;20472;-59
2022/11/22 02:51:47;;;;;;;14.07;8.87;;;4.30;85.90;;;;;;5012586;28;20462;-59
2022/11/22 02:54:13;;;;;;;15.60;8.50;;;4.30;85.90;;;;;;5013501;28;20493;-59
2022/11/22 02:56:39;;;;;;;14.50;8.80;;;4.30;85.90;;;;;;5013334;28;20439;-59
2022/11/22 02:59:04;;;;;;;19.83;9.00;;;4.30;85.80;;;;;;4999657;28;20442;-59
2022/11/22 03:01:30;;;;;;;17.50;9.70;;;4.30;85.80;;;;;;4993105;28;20190;-59
2022/11/22 03:03:56;;;;;;;16.97;9.13;;;4.30;85.90;;;;;;5011980;28;20188;-59
2022/11/22 03:06:21;;;;;;;16.70;10.33;;;4.30;85.90;;;;;;4997864;28;20203;-59
2022/11/22 03:08:49;;;;;;;22.77;11.10;;;4.30;85.90;;;;;;5022304;28;20253;-59
2022/11/22 03:11:15;;;;;;;21.37;10.37;;;4.30;85.90;;;;;;5028927;28;20183;-59
2022/11/22 03:13:41;;;;;;;23.13;12.17;;;4.30;85.90;;;;;;5013720;28;20415;-59
2022/11/22 03:16:07;;;;;;;21.77;10.97;;;4.30;85.90;;;;;;5012678;28;20195;-60
2022/11/22 03:18:33;;;;;;;25.27;12.97;;;4.30;85.90;;;;;;5012203;28;20250;-59
2022/11/22 03:21:07;;;;;;;26.83;11.60;;;4.30;85.90;;;;;;4995967;28;20238;-59
2022/11/22 03:23:33;;;;;;;23.03;11.83;;;4.30;86.00;;;;;;5012248;28;20431;-59
2022/11/22 03:26:05;;;;;;;17.30;9.30;;;4.30;86.00;;;;;;4993260;28;20430;-59
2022/11/22 03:28:30;;;;;;;12.10;7.43;;;4.30;85.70;;;;;;5009838;28;20198;-59
2022/11/22 03:30:56;;;;;;;13.83;7.67;;;4.30;85.60;;;;;;5016748;28;20474;-59
2022/11/22 03:33:22;;;;;;;13.03;8.30;;;4.30;85.10;;;;;;5016925;28;20236;-59
2022/11/22 03:35:48;;;;;;;12.53;7.67;;;4.30;84.90;;;;;;5016596;28;20435;-59
2022/11/22 03:38:13;;;;;;;13.40;7.67;;;4.30;84.80;;;;;;5000045;28;20188;-59
2022/11/22 03:40:39;;;;;;;17.83;7.90;;;4.30;84.70;;;;;;4999944;28;20184;-59
2022/11/22 03:43:04;;;;;;;25.07;10.97;;;4.30;84.60;;;;;;5000702;28;20192;-59
2022/11/22 03:45:30;;;;;;;21.13;10.93;;;4.30;84.70;;;;;;5016712;28;20195;-59
2022/11/22 03:47:56;;;;;;;22.97;11.30;;;4.30;84.70;;;;;;4999643;28;20215;-59
2022/11/22 03:50:22;;;;;;;22.23;9.87;;;4.20;84.90;;;;;;5033477;28;20210;-59
2022/11/22 03:52:48;;;;;;;18.87;10.10;;;4.20;84.90;;;;;;5032475;28;20187;-59
2022/11/22 03:55:14;;;;;;;19.33;9.73;;;4.20;84.90;;;;;;5009698;28;20423;-59
2022/11/22 03:57:40;;;;;;;21.43;9.57;;;4.20;84.90;;;;;;5000399;28;20203;-59
2022/11/22 04:00:07;;;;;;;23.67;11.00;;;4.20;85.00;;;;;;5027699;28;20426;-59
2022/11/22 04:02:33;;;;;;;22.53;11.03;;;4.20;85.00;;;;;;4999567;28;20188;-59
2022/11/22 04:04:58;;;;;;;23.73;11.63;;;4.20;84.70;;;;;;5015213;28;20457;-59
2022/11/22 04:07:24;;;;;;;20.00;11.30;;;4.20;84.80;;;;;;5001586;28;20229;-59
2022/11/22 04:09:50;;;;;;;22.20;11.37;;;4.20;84.60;;;;;;5016112;28;20216;-59
2022/11/22 04:12:15;;;;;;;21.43;11.00;;;4.20;84.60;;;;;;5015476;28;20302;-59
2022/11/22 04:17:40;;;;;;;26.17;12.37;;;4.10;84.40;;;;;;5015610;28;20261;-59
2022/11/22 04:22:57;;;;;;;22.37;11.80;;;3.90;84.80;;;;;;5015726;28;20485;-59
2022/11/22 04:25:24;;;;;;;24.17;12.17;;;4.00;85.00;;;;;;5030933;28;20442;-59
2022/11/22 04:27:50;;;;;;;29.13;13.73;;;3.90;85.10;;;;;;5000431;28;20517;-59
2022/11/22 04:30:16;;;;;;;25.10;12.10;;;4.00;85.40;;;;;;5011188;28;20473;-59
2022/11/22 04:32:44;;;;;;;21.63;10.87;;;4.00;85.40;;;;;;4994672;28;20205;-58
2022/11/22 04:35:11;;;;;;;21.03;11.50;;;4.00;85.40;;;;;;5002787;28;20587;-59
2022/11/22 04:37:36;;;;;;;22.07;11.37;;;4.10;85.40;;;;;;5014044;28;20473;-59
2022/11/22 04:40:03;;;;;;;21.53;12.17;;;4.10;85.40;;;;;;4994242;28;20451;-59
2022/11/22 04:45:13;;;;;;;23.00;11.13;;;4.10;85.40;;;;;;5022081;28;20473;-59
2022/11/22 04:53:06;;;;;;;28.13;11.53;;;4.10;85.30;;;;;;5011678;28;20489;-59
2022/11/22 04:55:32;;;;;;;20.00;10.83;;;4.20;85.30;;;;;;5013497;28;20439;-59
2022/11/22 04:57:58;;;;;;;25.07;11.87;;;4.20;85.30;;;;;;5029067;28;20205;-59
2022/11/22 05:00:26;;;;;;;24.37;11.33;;;4.20;85.20;;;;;;5013580;28;20203;-59
2022/11/22 05:02:52;;;;;;;21.83;11.03;;;4.20;85.20;;;;;;5014314;28;20266;-59
2022/11/22 05:05:17;;;;;;;22.17;11.40;;;4.20;85.10;;;;;;5012728;28;20796;-60
2022/11/22 05:07:43;;;;;;;19.83;10.50;;;4.20;85.10;;;;;;4997325;28;20192;-59
2022/11/22 05:10:09;;;;;;;22.00;11.33;;;4.20;85.10;;;;;;5013456;28;20216;-59
2022/11/22 05:12:39;;;;;;;18.83;10.83;;;4.20;85.10;;;;;;5013960;28;20191;-59
2022/11/22 05:15:05;;;;;;;22.27;11.07;;;4.30;85.20;;;;;;4997880;28;20426;-59
2022/11/22 05:17:31;;;;;;;22.10;10.67;;;4.30;85.20;;;;;;5013880;28;20964;-61
2022/11/22 05:19:56;;;;;;;20.63;10.73;;;4.30;85.20;;;;;;4976976;28;1117962;-61
2022/11/22 05:23:53;;;;;;;22.27;11.20;;;4.30;85.30;;;;;;5009505;28;20203;-60
2022/11/22 05:25:11;;;;;;;21.60;10.97;;;4.30;85.30;;;;;;5015566;28;20188;-60
2022/11/22 05:27:37;;;;;;;21.33;10.60;;;4.30;85.30;;;;;;5008721;28;20492;-61
2022/11/22 05:30:03;;;;;;;19.23;10.40;;;4.30;85.30;;;;;;5013176;28;20269;-61
2022/11/22 05:32:30;;;;;;;18.33;9.37;;;4.40;85.20;;;;;;5014463;28;20639;-61
2022/11/22 05:34:56;;;;;;;17.97;10.13;;;4.40;85.20;;;;;;5014212;28;20431;-60
2022/11/22 05:37:22;;;;;;;21.43;10.63;;;4.40;85.10;;;;;;4997306;28;20442;-61
2022/11/22 05:39:48;;;;;;;21.97;10.10;;;4.40;85.00;;;;;;4897712;28;20270;-60
2022/11/22 05:42:13;;;;;;;18.47;8.80;;;4.40;84.80;;;;;;3394105;28;20871;-61
2022/11/22 05:44:39;;;;;;;17.80;9.87;;;4.40;84.80;;;;;;3370557;28;21441;-60
2022/11/22 05:47:05;;;;;;;21.30;11.50;;;4.30;84.70;;;;;;4427731;28;20219;-60
2022/11/22 05:49:31;;;;;;;19.17;9.17;;;4.40;84.80;;;;;;5011829;28;20234;-61
2022/11/22 05:51:57;;;;;;;19.60;9.13;;;4.40;84.90;;;;;;3896335;28;21087;-61
2022/11/22 05:54:23;;;;;;;20.70;10.27;;;4.30;84.90;;;;;;3413094;28;22095;-61
2022/11/22 06:00:12;;;;;;;15.67;8.90;;;4.40;84.90;;;;;;5006120;28;20274;-61
2022/11/22 06:02:37;;;;;;;16.30;9.53;;;4.30;84.90;;;;;;5011377;28;20526;-61
2022/11/22 06:05:03;;;;;;;19.97;10.70;;;4.30;84.90;;;;;;5028891;28;20187;-61
2022/11/22 06:07:29;;;;;;;18.90;9.63;;;4.30;84.90;;;;;;4991448;28;20206;-60
2022/11/22 06:09:55;;;;;;;17.60;10.20;;;4.30;84.90;;;;;;3928994;28;21144;-61
2022/11/22 06:12:21;;;;;;;17.23;9.10;;;4.40;85.00;;;;;;4077229;28;20650;-60
2022/11/22 06:14:47;;;;;;;22.93;10.87;;;4.30;85.10;;;;;;4695028;28;22046;-61
2022/11/22 06:17:12;;;;;;;24.47;11.60;;;4.30;84.90;;;;;;3904907;28;20495;-60
2022/11/22 06:19:38;;;;;;;21.13;10.83;;;4.30;85.10;;;;;;5009222;28;20242;-61
2022/11/22 06:22:04;;;;;;;17.23;10.57;;;4.30;85.20;;;;;;4745985;28;20196;-60
2022/11/22 06:24:30;;;;;;;22.03;11.27;;;4.30;85.30;;;;;;5010595;28;20192;-61
2022/11/22 06:26:56;;;;;;;19.00;10.57;;;4.30;85.30;;;;;;4995439;28;20440;-61
2022/11/22 06:29:21;;;;;;;18.70;9.57;;;4.30;85.40;;;;;;4981214;28;20306;-61
2022/11/22 06:31:47;;;;;;;20.33;10.73;;;4.40;85.50;;;;;;4992882;28;20242;-61
2022/11/22 06:34:13;;;;;;;21.60;10.40;;;4.50;85.50;;;;;;3923897;28;20824;-61
2022/11/22 06:36:39;;;;;;;19.57;10.43;;;4.50;85.50;;;;;;4318747;28;20192;-61
2022/11/22 06:39:04;;;;;;;19.83;10.67;;;4.50;85.60;;;;;;4260971;28;20826;-61
2022/11/22 06:41:35;;;;;;;19.43;10.93;;;4.50;85.40;;;;;;4147654;28;21334;-59
2022/11/22 06:44:05;;;;;;;20.03;11.40;;;4.60;85.50;;;;;;3971077;28;20537;-60
2022/11/22 06:46:31;;;;;;;21.20;10.37;;;4.60;85.50;;;;;;4760687;28;20442;-60
2022/11/22 06:48:57;;;;;;;18.27;10.87;;;4.60;85.40;;;;;;4780498;28;22799;-60
2022/11/22 06:51:28;;;;;;;18.80;11.20;;;4.60;85.30;;;;;;4996602;28;20956;-59
2022/11/22 06:53:55;;;;;;;20.07;10.50;;;4.60;85.40;;;;;;4732940;28;20184;-60
2022/11/22 06:56:25;;;;;;;21.60;10.33;;;4.60;85.40;;;;;;5008257;28;20443;-60
2022/11/22 06:58:51;;;;;;;17.43;10.67;;;4.70;85.30;;;;;;5012386;28;20440;-60
2022/11/22 07:01:25;;;;;;;19.27;11.27;;;4.70;85.20;;;;;;5002384;28;20448;-60
2022/11/22 07:03:56;;;;;;;22.27;11.13;;;4.70;85.00;;;;;;5012336;28;20462;-60
2022/11/22 07:06:26;;;;;;;19.77;11.13;;;4.70;85.00;;;;;;5012968;28;20427;-60
2022/11/22 07:08:52;;;;;;;20.40;10.80;;;4.80;84.90;;;;;;4996573;28;20465;-60
2022/11/22 07:11:27;;;;;;;22.77;12.00;;;4.80;84.80;;;;;;5012342;28;20431;-60
2022/11/22 07:13:54;;;;;;;24.07;11.13;;;4.80;84.80;;;;;;5009690;28;20183;-60
2022/11/22 07:16:21;;;;;;;17.47;10.47;;;4.80;84.70;;;;;;4996162;28;20426;-60
2022/11/22 07:18:47;;;;;;;17.90;10.43;;;4.80;84.50;;;;;;4995301;28;20461;-60
2022/11/22 07:21:16;;;;;;;16.03;9.40;;;4.80;84.40;;;;;;5012186;28;20434;-60
2022/11/22 07:23:46;;;;;;;19.03;10.07;;;4.80;84.20;;;;;;5033812;28;20496;-60
2022/11/22 07:26:13;;;;;;;19.20;9.73;;;4.80;84.30;;;;;;4997357;28;20433;-59
2022/11/22 07:28:39;;;;;;;17.00;9.93;;;4.80;84.20;;;;;;5027967;28;20446;-59
2022/11/22 07:31:06;;;;;;;17.53;10.60;;;4.90;84.30;;;;;;5008388;28;20473;-60
2022/11/22 07:33:33;;;;;;;19.03;10.47;;;4.90;84.10;;;;;;5014383;28;20191;-60
2022/11/22 07:36:17;;;;;;;18.00;9.87;;;4.90;84.00;;;;;;5008280;28;20427;-60
2022/11/22 07:38:44;;;;;;;16.23;9.37;;;4.90;84.10;;;;;;5009644;28;20489;-60
2022/11/22 07:41:10;;;;;;;18.97;10.37;;;5.00;84.10;;;;;;5010388;28;20445;-61
2022/11/22 07:43:36;;;;;;;15.60;8.20;;;5.00;84.20;;;;;;5011134;28;20433;-61
2022/11/22 07:46:07;;;;;;;16.03;9.73;;;5.10;84.20;;;;;;5027972;28;20450;-61
2022/11/22 07:48:32;;;;;;;14.73;9.40;;;5.10;84.00;;;;;;5009383;28;20434;-61
2022/11/22 07:51:04;;;;;;;18.03;9.33;;;5.10;84.00;;;;;;5008561;28;20485;-61
2022/11/22 07:53:29;;;;;;;14.17;9.03;;;5.20;83.90;;;;;;5009033;28;20270;-61
2022/11/22 07:55:56;;;;;;;17.07;10.80;;;5.30;84.00;;;;;;5010086;28;20517;-60
2022/11/22 07:58:22;;;;;;;20.27;10.40;;;5.30;83.70;;;;;;4994150;28;20188;-60
2022/11/22 08:00:48;;;;;;;14.53;9.37;;;5.30;83.80;;;;;;4993757;28;20469;-60
2022/11/22 08:03:14;;;;;;;16.77;9.57;;;5.30;83.80;;;;;;4993352;28;20257;-60
2022/11/22 08:05:42;;;;;;;15.80;10.87;;;5.30;83.60;;;;;;4998123;28;20188;-60
2022/11/22 08:08:08;;;;;;;21.00;10.40;;;5.40;83.70;;;;;;4375654;28;20916;-60
2022/11/22 08:10:34;;;;;;;16.10;9.67;;;5.40;83.60;;;;;;4569971;28;20814;-60
2022/11/22 08:13:04;;;;;;;18.80;9.83;;;5.50;83.40;;;;;;4995077;28;20195;-60
2022/11/22 08:15:30;;;;;;;16.37;10.10;;;5.50;81.90;;;;;;4999695;28;20203;-61
2022/11/22 08:18:05;;;;;;;15.40;9.43;;;5.60;82.40;;;;;;4996379;28;20449;-60
2022/11/22 08:20:31;;;;;;;18.73;9.97;;;5.60;82.20;;;;;;5029083;28;20267;-60
2022/11/22 08:23:15;;;;;;;14.47;9.00;;;5.60;81.90;;;;;;5000549;28;20423;-60
2022/11/22 08:25:41;;;;;;;15.73;9.23;;;5.60;82.10;;;;;;5022471;28;20195;-60
2022/11/22 08:28:13;;;;;;;15.83;9.97;;;5.60;81.90;;;;;;4997387;28;20441;-60
2022/11/22 08:30:38;;;;;;;13.33;8.40;;;5.80;81.90;;;;;;4995678;28;20478;-61
2022/11/22 08:33:04;;;;;;;12.03;8.73;;;5.80;81.70;;;;;;4998493;28;20442;-60
2022/11/22 08:38:05;;;;;;;14.97;9.50;;;5.80;81.10;;;;;;5024243;23;20257;-60
2022/11/22 08:40:31;;;;;;;14.40;9.13;;;5.80;81.50;;;;;;4967121;28;20415;-60
2022/11/22 08:42:56;;;;;;;15.57;9.07;;;5.80;81.50;;;;;;4962776;28;20198;-60
2022/11/22 08:45:22;;;;;;;19.53;10.93;;;5.90;81.40;;;;;;5002871;28;20410;-60
2022/11/22 08:47:48;;;;;;;19.40;9.80;;;6.00;81.40;;;;;;4995751;28;20230;-60
2022/11/22 08:50:14;;;;;;;13.87;8.70;;;6.00;80.60;;;;;;4995356;28;20698;-60
2022/11/22 08:52:39;;;;;;;13.43;9.37;;;6.00;81.00;;;;;;4974975;28;20211;-60
2022/11/22 08:55:06;;;;;;;15.23;9.90;;;6.10;81.10;;;;;;4996118;28;20815;-60
2022/11/22 08:57:31;;;;;;;17.20;10.30;;;6.10;81.00;;;;;;4991598;28;20183;-59
2022/11/22 08:59:57;;;;;;;17.60;11.23;;;6.10;80.80;;;;;;4991071;28;20452;-59
2022/11/22 09:02:22;;;;;;;19.10;11.00;;;6.10;80.70;;;;;;4970551;28;20191;-59
2022/11/22 09:04:48;;;;;;;17.27;10.17;;;6.20;80.60;;;;;;4984511;28;20195;-59
2022/11/22 09:07:14;;;;;;;21.53;10.67;;;6.20;79.90;;;;;;4979717;28;20222;-59
2022/11/22 09:09:39;;;;;;;19.47;10.07;;;6.10;79.50;;;;;;4997369;28;20219;-59
2022/11/22 09:12:05;;;;;;;17.33;10.07;;;6.10;79.20;;;;;;4976484;28;20184;-60
2022/11/22 09:14:31;;;;;;;18.80;11.37;;;6.10;79.00;;;;;;4975800;28;20184;-60
2022/11/22 09:16:57;;;;;;;19.60;11.83;;;6.10;79.60;;;;;;4960597;28;20474;-60
2022/11/22 09:19:22;;;;;;;15.27;10.83;;;6.10;79.50;;;;;;4974887;28;20192;-60
2022/11/22 09:21:48;;;;;;;23.37;11.77;;;6.10;79.80;;;;;;4970885;28;20228;-60
2022/11/22 09:24:14;;;;;;;19.97;12.37;;;6.20;79.90;;;;;;4977257;28;20222;-60
2022/11/22 09:26:39;;;;;;;19.53;11.57;;;6.20;79.80;;;;;;4962972;28;20266;-60
2022/11/22 09:29:05;;;;;;;20.93;11.80;;;6.20;79.70;;;;;;4960894;28;20188;-60
2022/11/22 09:31:31;;;;;;;19.97;11.97;;;6.30;79.90;;;;;;4979019;28;20214;-59
2022/11/22 09:33:57;;;;;;;18.47;11.73;;;6.30;79.80;;;;;;4968697;28;20199;-61
2022/11/22 09:36:27;;;;;;;15.50;10.17;;;6.30;79.70;;;;;;4960018;28;20266;-61
2022/11/22 09:38:54;;;;;;;17.07;11.93;;;6.40;79.50;;;;;;4994033;28;20290;-61
2022/11/22 09:42:04;;;;;;;;;;;;;;;;;;;;;
2022/11/22 09:45:09;;;;;;;22.17;14.13;;;6.50;79.10;;;;;;4993321;28;20487;-59
2022/11/22 09:47:45;;;;;;;20.50;12.63;;;6.40;79.00;;;;;;4992333;28;20451;-60
2022/11/22 09:50:26;;;;;;;22.70;14.37;;;6.40;79.00;;;;;;4990788;28;20535;-59
2022/11/22 09:53:23;;;;;;;21.87;14.23;;;6.30;79.00;;;;;;4992146;28;20489;-60
2022/11/22 09:55:52;;;;;;;27.50;14.70;;;6.30;79.90;;;;;;4988114;28;20531;-60
2022/11/22 09:58:32;;;;;;;27.73;16.70;;;6.30;80.50;;;;;;4983848;28;20435;-60
2022/11/22 10:01:23;;;;;;;24.33;15.93;;;6.40;80.30;;;;;;4987171;28;20456;-60
2022/11/22 10:03:58;;;;;;;21.37;13.80;;;6.40;80.20;;;;;;4988515;28;20919;-61
2022/11/22 10:06:28;;;;;;;24.47;13.60;;;6.50;80.40;;;;;;4991868;28;20454;-61
2022/11/22 10:09:04;;;;;;;21.70;14.33;;;6.50;79.60;;;;;;4987022;28;20431;-61
2022/11/22 10:11:54;;;;;;;22.23;13.83;;;6.60;79.60;;;;;;4991009;28;20434;-60
2022/11/22 10:14:38;;;;;;;25.00;15.10;;;6.50;79.50;;;;;;4194840;28;21706;-59
2022/11/22 10:17:27;;;;;;;23.60;15.87;;;6.40;79.60;;;;;;4993491;28;20412;-59
2022/11/22 10:20:06;;;;;;;24.63;15.70;;;6.30;79.90;;;;;;4990275;28;20445;-60
2022/11/22 10:22:33;;;;;;;26.13;15.77;;;6.40;80.70;;;;;;4993869;28;20415;-59
2022/11/22 10:25:01;;;;;;;18.37;13.27;;;6.50;80.80;;;;;;4994880;28;20433;-59
2022/11/22 10:27:31;;;;;;;21.60;14.27;;;6.60;80.00;;;;;;4993793;28;20419;-60
2022/11/22 10:30:04;;;;;;;20.30;13.07;;;6.60;79.70;;;;;;4993705;28;20459;-61
2022/11/22 10:32:33;;;;;;;22.63;14.37;;;6.70;79.80;;;;;;4993066;28;20430;-59
2022/11/22 10:35:23;;;;;;;22.67;14.10;;;6.70;79.70;;;;;;4978440;28;20425;-60
2022/11/22 10:38:13;;;;;;;22.70;14.10;;;6.80;79.60;;;;;;4990362;28;20481;-59
2022/11/22 10:41:04;;;;;;;22.73;13.23;;;6.80;79.70;;;;;;4990778;28;20432;-60
2022/11/22 10:43:39;;;;;;;20.80;11.57;;;6.90;79.60;;;;;;4993617;28;20431;-61
2022/11/22 10:46:38;;;;;;;19.57;13.47;;;7.00;79.50;;;;;;4992866;28;20427;-60
2022/11/22 10:49:24;;;;;;;19.70;12.70;;;7.00;78.80;;;;;;4988802;28;20436;-61
2022/11/22 10:51:56;;;;;;;19.17;12.83;;;7.00;78.50;;;;;;4663076;28;21583;-60
2022/11/22 10:54:48;;;;;;;20.10;13.63;;;7.00;78.70;;;;;;4974329;28;20559;-60
2022/11/22 10:57:33;;;;;;;21.50;14.10;;;7.10;78.50;;;;;;5009050;28;20790;-60
2022/11/22 11:00:14;;;;;;;20.50;12.93;;;7.10;78.20;;;;;;4993516;28;20459;-60
2022/11/22 11:03:06;;;;;;;21.93;13.03;;;7.10;78.50;;;;;;4993579;28;20430;-60
2022/11/22 11:05:47;;;;;;;21.10;12.37;;;7.10;78.50;;;;;;4966189;28;20423;-60
2022/11/22 11:08:16;;;;;;;16.10;11.50;;;7.20;78.60;;;;;;4994244;28;20490;-61
2022/11/22 11:10:42;;;;;;;21.87;12.37;;;7.30;78.70;;;;;;4991363;28;20472;-60
2022/11/22 11:13:28;;;;;;;16.47;12.07;;;7.30;78.60;;;;;;4992994;28;20419;-60
2022/11/22 11:15:56;;;;;;;22.90;13.27;;;7.40;78.40;;;;;;4983266;28;20431;-60
2022/11/22 11:19:04;;;;;;;19.47;11.43;;;7.40;77.00;;;;;;4993302;28;20419;-60
2022/11/22 11:21:30;;;;;;;19.87;13.10;;;7.40;76.90;;;;;;4991141;28;20435;-61
2022/11/22 11:23:56;;;;;;;20.47;13.03;;;7.50;77.30;;;;;;4994104;28;20563;-60
2022/11/22 11:26:27;;;;;;;19.00;12.73;;;7.50;77.60;;;;;;4959508;28;20280;-60
2022/11/22 11:29:40;;;;;;;16.37;12.20;;;7.60;76.90;;;;;;4992491;28;20203;-59
2022/11/22 11:32:50;;;;;;;19.33;12.67;;;7.60;77.30;;;;;;4994003;28;20443;-60
2022/11/22 11:35:16;;;;;;;19.17;12.27;;;7.60;77.00;;;;;;4980654;28;20863;-60
2022/11/22 11:37:41;;;;;;;16.83;11.90;;;7.60;77.00;;;;;;4992214;28;20515;-59
2022/11/22 11:51:00;;;;;;;18.07;11.93;;;7.50;77.00;;;;;;4997190;28;20493;-59
2022/11/22 11:53:26;;;;;;;20.97;12.57;;;7.50;77.70;;;;;;4995024;28;20424;-60
2022/11/22 11:55:51;;;;;;;18.17;12.13;;;7.60;77.30;;;;;;4979713;28;20527;-60
2022/11/22 11:58:23;;;;;;;18.87;12.13;;;7.70;76.90;;;;;;4995953;28;20184;-59
2022/11/22 12:00:49;;;;;;;20.50;13.23;;;7.70;77.10;;;;;;4996248;28;20279;-60
2022/11/22 12:03:18;;;;;;;19.57;12.60;;;7.70;77.10;;;;;;4996014;28;20415;-60
2022/11/22 12:05:44;;;;;;;19.57;12.33;;;7.70;77.20;;;;;;4996778;28;20434;-60
2022/11/22 12:08:29;;;;;;;19.30;11.97;;;7.60;77.20;;;;;;4995960;28;20462;-59
2022/11/22 12:11:05;;;;;;;18.80;12.50;;;7.60;77.10;;;;;;4995740;28;20462;-60
2022/11/22 12:13:46;;;;;;;15.57;10.80;;;7.60;76.90;;;;;;4994990;28;20984;-59
2022/11/22 12:16:17;;;;;;;20.13;11.13;;;7.60;77.20;;;;;;4995214;28;20478;-60
2022/11/22 12:18:52;;;;;;;19.00;12.30;;;7.60;77.50;;;;;;4995280;28;20523;-60
2022/11/22 12:21:22;;;;;;;19.50;12.33;;;7.70;77.40;;;;;;4994393;28;20991;-59
2022/11/22 12:24:11;;;;;;;22.27;12.33;;;7.70;77.50;;;;;;4994221;28;20518;-60
2022/11/22 12:26:37;;;;;;;18.90;11.40;;;7.70;77.20;;;;;;4994487;28;20535;-60
2022/11/22 12:29:03;;;;;;;20.97;12.47;;;7.70;77.20;;;;;;4994055;28;20451;-59
2022/11/22 12:31:36;;;;;;;18.03;11.67;;;7.70;76.20;;;;;;4992240;28;20208;-60
2022/11/22 12:34:15;;;;;;;21.57;12.07;;;7.60;76.60;;;;;;4993828;28;20427;-61
2022/11/22 12:37:02;;;;;;;16.77;11.37;;;7.60;76.50;;;;;;4998744;28;20895;-60
2022/11/22 12:39:30;;;;;;;16.23;10.70;;;7.70;76.90;;;;;;5010021;28;20517;-60
2022/11/22 12:42:07;;;;;;;20.53;11.50;;;7.70;77.00;;;;;;4997715;28;20423;-60
2022/11/22 12:44:38;;;;;;;18.57;11.60;;;7.70;77.10;;;;;;4997542;28;20422;-60
2022/11/22 12:47:16;;;;;;;15.97;10.93;;;7.60;78.00;;;;;;4995691;28;20533;-61
2022/11/22 12:49:43;;;;;;;14.33;10.20;;;7.60;79.30;;;;;;4983756;28;20463;-61
2022/11/22 12:52:27;;;;;;;17.00;10.50;;;7.70;79.90;;;;;;4992552;28;20462;-60
2022/11/22 12:54:58;;;;;;;11.43;8.50;;;7.70;80.70;;;;;;4994211;28;20522;-60
2022/11/22 12:58:10;;;;;;;11.53;8.77;;;7.70;81.50;;;;;;5015253;28;20418;-60
2022/11/22 13:00:43;;;;;;;11.60;8.13;;;7.70;82.90;;;;;;4972861;28;20429;-60
2022/11/22 13:03:14;;;;;;;11.37;7.60;;;7.70;84.90;;;;;;4996738;28;20422;-61
2022/11/22 13:05:48;;;;;;;10.57;6.57;;;7.60;85.40;;;;;;4997041;28;20437;-61
2022/11/22 13:08:27;;;;;;;7.07;5.60;;;7.30;86.30;;;;;;4986750;28;20494;-60
2022/11/22 13:11:12;;;;;;;9.27;5.50;;;7.20;87.50;;;;;;4993139;28;20538;-60
2022/11/22 13:13:45;;;;;;;7.67;5.40;;;7.00;87.90;;;;;;4994078;28;20427;-61
2022/11/22 13:16:11;;;;;;;6.93;4.97;;;6.80;88.80;;;;;;4995617;28;20434;-62
2022/11/22 13:19:04;;;;;;;6.60;4.67;;;6.80;89.60;;;;;;4994100;28;20922;-62
2022/11/22 13:21:38;;;;;;;7.67;5.07;;;6.60;90.30;;;;;;4982425;28;20948;-62
2022/11/22 13:24:28;;;;;;;7.93;5.10;;;6.50;90.70;;;;;;4995769;28;20961;-61
2022/11/22 13:27:34;;;;;;;7.30;4.50;;;6.40;91.40;;;;;;4994841;28;20437;-62
2022/11/22 13:30:01;;;;;;;7.33;5.03;;;6.30;91.60;;;;;;4994956;28;20855;-62